Time;durP1;ratioP1;P1;durP2;ratioP2;P2;SDS_P1;SDS_P2;PMS_P1;PMS_P2;Temp;Humidity;BMP_temperature;BMP_pressure;BME280_temperature;BME280_humidity;BME280_pressure;Samples;Min_cycle;Max_cycle;Signal;HPM_P1;HPM_P2
2021/12/24 00:01:23;;;;;;;0.30;0.20;;;;;20.10;100638.00;;;;5118638;27;20051;-75
2021/12/24 00:03:53;;;;;;;0.00;0.00;;;;;20.00;100631.00;;;;5115687;27;20058;-78
2021/12/24 00:06:24;;;;;;;0.05;0.05;;;;;19.90;100631.00;;;;5115856;27;20506;-78
2021/12/24 00:08:55;;;;;;;3.53;0.80;;;;;20.10;100620.00;;;;5114925;27;20119;-77
2021/12/24 00:11:25;;;;;;;0.00;0.00;;;;;20.00;100654.00;;;;5117789;27;20078;-78
2021/12/24 00:13:55;;;;;;;0.20;0.10;;;;;19.90;100622.00;;;;5114886;27;20090;-76
2021/12/24 00:16:36;;;;;;;0.13;0.10;;;;;19.80;100648.00;;;;5117444;27;20072;-76
2021/12/24 00:35:32;;;;;;;0.00;0.00;;;;;19.70;100669.00;;;;5114517;27;20031;-78
2021/12/24 00:38:06;;;;;;;0.00;0.00;;;;;19.60;100677.00;;;;5116603;27;20108;-78
2021/12/24 00:40:43;;;;;;;0.00;0.00;;;;;19.50;100672.00;;;;5114674;27;20035;-78
2021/12/24 00:43:16;;;;;;;0.85;0.15;;;;;19.50;100661.00;;;;5091943;27;20044;-75
2021/12/24 00:45:47;;;;;;;0.00;0.00;;;;;19.30;100678.00;;;;5089100;28;20051;-77
2021/12/24 00:48:20;;;;;;;0.00;0.00;;;;;19.30;100669.00;;;;5087785;28;20035;-77
2021/12/24 00:56:02;;;;;;;0.00;0.00;;;;;19.50;100678.00;;;;5087135;28;20059;-76
2021/12/24 00:58:32;;;;;;;0.00;0.00;;;;;19.30;100681.00;;;;5087962;28;20044;-76
2021/12/24 01:01:03;;;;;;;0.00;0.00;;;;;19.30;100656.00;;;;5087708;28;20089;-79
2021/12/24 01:03:35;;;;;;;0.00;0.00;;;;;19.20;100675.00;;;;5092210;27;20058;-77
2021/12/24 01:06:05;;;;;;;0.00;0.00;;;;;19.10;100668.00;;;;5116628;27;20051;-76
2021/12/24 01:08:35;;;;;;;0.00;0.00;;;;;18.90;100673.00;;;;5103026;27;20043;-75
2021/12/24 01:11:07;;;;;;;0.10;0.10;;;;;19.00;100680.00;;;;5123209;27;20062;-75
2021/12/24 01:13:38;;;;;;;0.00;0.00;;;;;18.90;100689.00;;;;5100804;27;20049;-76
2021/12/24 01:24:04;;;;;;;0.00;0.00;;;;;18.30;100687.00;;;;5106088;28;20040;-76
2021/12/24 01:26:43;;;;;;;0.00;0.00;;;;;18.30;100674.00;;;;5105766;28;20117;-76
2021/12/24 01:42:51;;;;;;;0.00;0.00;;;;;17.90;100662.00;;;;5107187;28;20051;-76
2021/12/24 01:45:31;;;;;;;0.00;0.00;;;;;18.00;100654.00;;;;5104818;28;20104;-76
2021/12/24 01:48:08;;;;;;;0.00;0.00;;;;;17.90;100659.00;;;;5104726;28;20062;-75
2021/12/24 01:50:46;;;;;;;0.00;0.00;;;;;17.80;100628.00;;;;5094213;28;20054;-77
2021/12/24 01:53:23;;;;;;;0.00;0.00;;;;;17.80;100602.00;;;;5125504;27;20417;-77
2021/12/24 01:55:58;;;;;;;0.00;0.00;;;;;17.80;100635.00;;;;5125469;27;20055;-76
2021/12/24 01:58:28;;;;;;;0.10;0.05;;;;;17.70;100636.00;;;;5125667;27;20058;-76
2021/12/24 02:00:58;;;;;;;0.00;0.00;;;;;17.70;100654.00;;;;5126054;27;20043;-77
2021/12/24 02:03:34;;;;;;;0.00;0.00;;;;;17.90;100645.00;;;;5125494;27;20062;-76
2021/12/24 02:06:05;;;;;;;0.00;0.00;;;;;17.80;100648.00;;;;5127310;27;20096;-75
2021/12/24 02:08:35;;;;;;;0.00;0.00;;;;;17.80;100638.00;;;;5128986;27;20047;-75
2021/12/24 02:11:06;;;;;;;;;;;;;17.70;100650.00;;;;5126247;28;20496;-76
2021/12/24 02:13:39;;;;;;;0.00;0.00;;;;;17.60;100639.00;;;;5125099;28;19934;-77
2021/12/24 02:30:10;;;;;;;0.00;0.00;;;;;17.20;100625.00;;;;5084249;28;20044;-76
2021/12/24 02:32:42;;;;;;;0.00;0.00;;;;;17.10;100630.00;;;;5084355;28;20048;-76
2021/12/24 02:35:13;;;;;;;0.00;0.00;;;;;17.10;100627.00;;;;5084610;28;20072;-77
2021/12/24 02:37:44;;;;;;;0.00;0.00;;;;;17.00;100630.00;;;;5085338;28;20040;-77
2021/12/24 02:40:13;;;;;;;;;;;;;17.00;100652.00;;;;5084847;28;20059;-76
2021/12/24 02:42:49;;;;;;;0.00;0.00;;;;;17.10;100643.00;;;;5086505;28;20438;-77
2021/12/24 02:45:20;;;;;;;0.00;0.00;;;;;17.10;100646.00;;;;5084849;28;20048;-76
2021/12/24 02:56:05;;;;;;;0.00;0.00;;;;;17.00;100604.00;;;;5086042;28;20499;-76
2021/12/24 02:58:48;;;;;;;0.08;0.08;;;;;17.00;100605.00;;;;5087118;28;20127;-76
2021/12/24 03:01:22;;;;;;;1.17;0.35;;;;;16.90;100620.00;;;;5089989;28;20439;-76
2021/12/24 03:03:53;;;;;;;0.00;0.00;;;;;16.90;100605.00;;;;5087964;28;20059;-76
2021/12/24 03:06:28;;;;;;;0.00;0.00;;;;;16.80;100595.00;;;;5088146;28;20044;-76
2021/12/24 03:08:58;;;;;;;0.00;0.00;;;;;16.90;100615.00;;;;5089722;28;20039;-76
2021/12/24 03:11:28;;;;;;;0.00;0.00;;;;;16.90;100587.00;;;;5088519;28;20060;-76
2021/12/24 03:13:57;;;;;;;0.00;0.00;;;;;16.90;100612.00;;;;5089616;28;20048;-76
2021/12/24 03:16:28;;;;;;;0.00;0.00;;;;;16.80;100606.00;;;;5088289;28;20040;-75
2021/12/24 03:18:57;;;;;;;0.00;0.00;;;;;16.70;100600.00;;;;5090520;28;20043;-76
2021/12/24 03:26:39;;;;;;;0.00;0.00;;;;;16.60;100591.00;;;;5089060;28;20070;-76
2021/12/24 03:29:11;;;;;;;3.20;0.38;;;;;16.60;100574.00;;;;5087680;28;20184;-76
2021/12/24 03:31:42;;;;;;;0.00;0.00;;;;;16.70;100572.00;;;;5087819;28;20055;-75
2021/12/24 03:34:15;;;;;;;2.63;0.20;;;;;16.60;100572.00;;;;5087846;28;20044;-76
2021/12/24 03:36:46;;;;;;;0.00;0.00;;;;;16.60;100565.00;;;;5087775;28;20048;-76
2021/12/24 03:39:19;;;;;;;0.00;0.00;;;;;16.70;100566.00;;;;5071844;28;20052;-75
2021/12/24 03:41:50;;;;;;;0.00;0.00;;;;;16.60;100564.00;;;;5087525;28;20044;-76
2021/12/24 03:44:29;;;;;;;0.00;0.00;;;;;16.60;100559.00;;;;5088011;28;20097;-76
2021/12/24 03:47:10;;;;;;;0.00;0.00;;;;;16.80;100553.00;;;;5086772;28;20067;-76
2021/12/24 03:50:00;;;;;;;0.20;0.10;;;;;16.70;100530.00;;;;5087554;28;20052;-75
2021/12/24 03:54:55;;;;;;;0.00;0.00;;;;;16.70;100535.00;;;;5087509;28;20051;-76
2021/12/24 03:55:24;;;;;;;0.00;0.00;;;;;16.70;100541.00;;;;5080262;28;20534;-76
2021/12/24 03:57:54;;;;;;;0.00;0.00;;;;;16.70;100532.00;;;;5087140;28;20080;-76
2021/12/24 04:00:42;;;;;;;0.00;0.00;;;;;16.70;100516.00;;;;5088869;28;20058;-75
2021/12/24 04:03:35;;;;;;;0.00;0.00;;;;;16.70;100541.00;;;;5068714;28;20056;-77
2021/12/24 04:06:33;;;;;;;0.00;0.00;;;;;16.80;100511.00;;;;5033065;28;20050;-76
2021/12/24 04:09:39;;;;;;;0.00;0.00;;;;;16.70;100519.00;;;;5075371;28;20048;-76
2021/12/24 04:12:29;;;;;;;0.00;0.00;;;;;16.70;100507.00;;;;5087628;28;20044;-75
2021/12/24 04:14:59;;;;;;;0.00;0.00;;;;;16.60;100524.00;;;;5086800;28;20048;-78
2021/12/24 04:17:31;;;;;;;0.00;0.00;;;;;16.60;100494.00;;;;5086829;28;20044;-78
2021/12/24 04:25:31;;;;;;;0.00;0.00;;;;;16.60;100492.00;;;;5086603;28;20094;-78
2021/12/24 04:28:00;;;;;;;0.00;0.00;;;;;16.70;100495.00;;;;5087243;28;20047;-77
2021/12/24 04:30:39;;;;;;;0.00;0.00;;;;;16.80;100483.00;;;;5087565;28;20529;-78
2021/12/24 04:33:19;;;;;;;0.00;0.00;;;;;16.80;100496.00;;;;5085940;28;20048;-77
2021/12/24 04:35:59;;;;;;;0.00;0.00;;;;;16.70;100489.00;;;;5086816;28;20083;-77
2021/12/24 04:38:59;;;;;;;0.00;0.00;;;;;16.80;100483.00;;;;5086699;28;20097;-76
2021/12/24 05:03:46;;;;;;;0.00;0.00;;;;;16.20;100485.00;;;;5087534;28;20129;-76
2021/12/24 05:08:55;;;;;;;0.00;0.00;;;;;16.20;100472.00;;;;5085957;28;20083;-76
2021/12/24 05:11:26;;;;;;;0.00;0.00;;;;;16.10;100475.00;;;;5086347;28;20063;-76
2021/12/24 05:13:55;;;;;;;0.00;0.00;;;;;16.10;100474.00;;;;5086339;28;20479;-76
2021/12/24 05:17:05;;;;;;;0.00;0.00;;;;;16.00;100468.00;;;;5086942;28;20070;-76
2021/12/24 05:22:52;;;;;;;0.00;0.00;;;;;15.90;100480.00;;;;5085425;28;20055;-76
2021/12/24 05:25:22;;;;;;;0.00;0.00;;;;;16.00;100446.00;;;;5086139;28;20097;-75
2021/12/24 05:27:55;;;;;;;0.00;0.00;;;;;16.00;100469.00;;;;5086967;28;20047;-75
2021/12/24 05:30:26;;;;;;;0.00;0.00;;;;;16.10;100468.00;;;;5087872;28;20059;-75
2021/12/24 05:32:56;;;;;;;0.00;0.00;;;;;16.20;100480.00;;;;5086953;28;20495;-76
2021/12/24 05:35:26;;;;;;;0.00;0.00;;;;;16.30;100476.00;;;;5069106;28;20103;-75
2021/12/24 05:37:56;;;;;;;0.00;0.00;;;;;16.20;100473.00;;;;5083113;28;20645;-76
2021/12/24 05:40:27;;;;;;;0.00;0.00;;;;;16.00;100470.00;;;;5085206;28;20043;-75
2021/12/24 05:42:56;;;;;;;0.75;0.75;;;;;15.90;100473.00;;;;5082865;28;20086;-78
2021/12/24 05:45:26;;;;;;;0.00;0.00;;;;;15.90;100455.00;;;;5085779;28;20052;-77
2021/12/24 05:48:22;;;;;;;0.00;0.00;;;;;15.90;100450.00;;;;5062201;28;20578;-76
2021/12/24 05:50:55;;;;;;;0.00;0.00;;;;;15.80;100480.00;;;;5085147;28;20052;-76
2021/12/24 05:53:56;;;;;;;0.00;0.00;;;;;15.90;100440.00;;;;5052073;28;20148;-76
2021/12/24 05:56:29;;;;;;;0.00;0.00;;;;;15.80;100451.00;;;;5084956;28;20051;-76
2021/12/24 05:59:10;;;;;;;;;;;;;15.70;100464.00;;;;5085513;28;20071;-76
2021/12/24 06:01:40;;;;;;;0.00;0.00;;;;;15.70;100452.00;;;;5085500;28;19950;-76
2021/12/24 06:04:10;;;;;;;0.00;0.00;;;;;15.70;100430.00;;;;5087197;28;20552;-76
2021/12/24 06:06:40;;;;;;;0.05;0.05;;;;;15.70;100446.00;;;;5086747;28;20032;-76
2021/12/24 06:09:10;;;;;;;0.00;0.00;;;;;15.80;100449.00;;;;5087425;28;20557;-76
2021/12/24 06:11:39;;;;;;;0.00;0.00;;;;;15.70;100438.00;;;;5086303;28;20055;-75
2021/12/24 06:14:12;;;;;;;0.00;0.00;;;;;15.60;100443.00;;;;5087282;28;20054;-75
2021/12/24 06:16:49;;;;;;;0.00;0.00;;;;;15.60;100448.00;;;;5086238;28;20545;-75
2021/12/24 06:19:19;;;;;;;0.00;0.00;;;;;15.60;100436.00;;;;5085872;28;20036;-76
2021/12/24 06:21:48;;;;;;;1.50;0.35;;;;;15.60;100444.00;;;;5086673;28;20048;-76
2021/12/24 06:24:18;;;;;;;0.00;0.00;;;;;15.60;100447.00;;;;5086627;28;20055;-76
2021/12/24 06:26:49;;;;;;;0.00;0.00;;;;;15.50;100436.00;;;;5087142;28;20040;-76
2021/12/24 06:29:20;;;;;;;0.00;0.00;;;;;15.60;100446.00;;;;5087072;28;20054;-76
2021/12/24 06:31:51;;;;;;;0.00;0.00;;;;;15.60;100425.00;;;;5085802;28;20051;-76
2021/12/24 06:34:21;;;;;;;0.00;0.00;;;;;15.50;100423.00;;;;5088915;28;20774;-76
2021/12/24 06:36:53;;;;;;;0.00;0.00;;;;;15.50;100437.00;;;;5089874;28;20519;-76
2021/12/24 06:39:23;;;;;;;0.00;0.00;;;;;15.50;100435.00;;;;5089051;28;20430;-76
2021/12/24 06:41:54;;;;;;;0.00;0.00;;;;;15.50;100407.00;;;;5090256;28;20130;-76
2021/12/24 06:44:23;;;;;;;0.00;0.00;;;;;15.50;100418.00;;;;5090145;28;20048;-76
2021/12/24 06:46:52;;;;;;;0.00;0.00;;;;;15.50;100413.00;;;;5090337;28;20510;-76
2021/12/24 06:49:22;;;;;;;0.00;0.00;;;;;15.60;100409.00;;;;5090490;28;20055;-76
2021/12/24 06:51:52;;;;;;;0.00;0.00;;;;;15.60;100431.00;;;;5090574;28;20101;-76
2021/12/24 06:54:21;;;;;;;0.00;0.00;;;;;15.60;100413.00;;;;5090067;28;20043;-76
2021/12/24 06:56:53;;;;;;;0.00;0.00;;;;;15.60;100422.00;;;;5087759;28;20040;-75
2021/12/24 06:59:24;;;;;;;0.00;0.00;;;;;15.50;100436.00;;;;5089416;28;20489;-76
2021/12/24 07:01:53;;;;;;;0.00;0.00;;;;;15.50;100450.00;;;;5088879;28;20055;-76
2021/12/24 07:04:23;;;;;;;0.00;0.00;;;;;15.50;100424.00;;;;5090058;28;20075;-76
2021/12/24 07:06:53;;;;;;;1.02;1.00;;;;;15.50;100449.00;;;;5089876;28;20067;-76
2021/12/24 07:09:23;;;;;;;0.00;0.00;;;;;15.50;100414.00;;;;5089340;28;20126;-76
2021/12/24 07:11:52;;;;;;;0.00;0.00;;;;;15.40;100449.00;;;;5089707;28;20052;-76
2021/12/24 07:14:23;;;;;;;0.00;0.00;;;;;15.40;100442.00;;;;5089827;28;20050;-75
2021/12/24 07:16:53;;;;;;;0.05;0.00;;;;;15.50;100414.00;;;;5090212;28;20582;-76
2021/12/24 07:19:22;;;;;;;0.00;0.00;;;;;15.60;100421.00;;;;5090099;28;20048;-76
2021/12/24 07:21:52;;;;;;;0.03;0.03;;;;;15.50;100417.00;;;;5088717;28;20495;-76
2021/12/24 07:24:21;;;;;;;0.00;0.00;;;;;15.40;100440.00;;;;5089824;28;20048;-75
2021/12/24 07:26:51;;;;;;;0.00;0.00;;;;;15.40;100362.00;;;;5089799;28;20047;-76
2021/12/24 07:29:20;;;;;;;0.00;0.00;;;;;15.40;100428.00;;;;5089334;28;20052;-75
2021/12/24 07:31:50;;;;;;;0.13;0.13;;;;;15.40;100409.00;;;;5089041;28;20438;-76
2021/12/24 07:34:19;;;;;;;0.00;0.00;;;;;15.40;100435.00;;;;5088581;28;20495;-77
2021/12/24 07:36:49;;;;;;;0.00;0.00;;;;;15.30;100436.00;;;;5088241;28;20567;-76
2021/12/24 07:39:19;;;;;;;0.00;0.00;;;;;15.30;100429.00;;;;5089130;28;20099;-76
2021/12/24 07:41:48;;;;;;;0.00;0.00;;;;;15.30;100461.00;;;;5088978;28;20044;-76
2021/12/24 07:44:19;;;;;;;0.00;0.00;;;;;15.40;100449.00;;;;5088241;28;20044;-76
2021/12/24 07:46:57;;;;;;;0.00;0.00;;;;;15.40;100432.00;;;;5088732;28;20044;-74
2021/12/24 07:52:08;;;;;;;0.00;0.00;;;;;15.30;100456.00;;;;5089015;28;20040;-76
2021/12/24 07:54:45;;;;;;;0.00;0.00;;;;;15.20;100441.00;;;;5088890;28;20147;-76
2021/12/24 07:57:31;;;;;;;0.00;0.00;;;;;15.20;100464.00;;;;5089280;28;20040;-76
2021/12/24 08:00:01;;;;;;;0.00;0.00;;;;;15.20;100450.00;;;;5089170;28;20482;-76
2021/12/24 08:02:30;;;;;;;0.00;0.00;;;;;15.20;100434.00;;;;5088263;28;20048;-76
2021/12/24 08:05:00;;;;;;;0.00;0.00;;;;;15.20;100429.00;;;;5088946;28;20048;-75
2021/12/24 08:07:29;;;;;;;0.00;0.00;;;;;15.20;100425.00;;;;5089118;28;20044;-76
2021/12/24 08:09:59;;;;;;;0.00;0.00;;;;;15.20;100439.00;;;;5089104;28;20044;-75
2021/12/24 08:12:28;;;;;;;0.00;0.00;;;;;15.20;100446.00;;;;5089016;28;20097;-76
2021/12/24 08:14:58;;;;;;;0.00;0.00;;;;;15.30;100448.00;;;;5088955;28;20423;-75
2021/12/24 08:17:27;;;;;;;6.60;0.45;;;;;15.30;100438.00;;;;5088965;28;20044;-76
2021/12/24 08:19:57;;;;;;;0.00;0.00;;;;;15.40;100448.00;;;;5088232;28;20690;-76
2021/12/24 08:22:26;;;;;;;0.00;0.00;;;;;15.30;100467.00;;;;5087940;28;20408;-75
2021/12/24 08:24:56;;;;;;;0.00;0.00;;;;;15.40;100440.00;;;;5088457;28;20499;-77
2021/12/24 08:27:25;;;;;;;0.00;0.00;;;;;15.30;100455.00;;;;5088299;28;20044;-76
2021/12/24 08:29:55;;;;;;;0.00;0.00;;;;;15.30;100459.00;;;;5088024;28;20043;-76
2021/12/24 08:32:26;;;;;;;0.05;0.05;;;;;15.40;100476.00;;;;5070702;28;20553;-76
2021/12/24 08:34:55;;;;;;;0.00;0.00;;;;;15.40;100468.00;;;;5088281;28;20044;-75
2021/12/24 08:37:25;;;;;;;0.00;0.00;;;;;15.30;100471.00;;;;5088352;28;20609;-76
2021/12/24 08:39:54;;;;;;;0.00;0.00;;;;;15.40;100477.00;;;;5088973;28;20445;-76
2021/12/24 08:42:24;;;;;;;0.00;0.00;;;;;15.50;100471.00;;;;5088235;28;20085;-76
2021/12/24 08:44:53;;;;;;;0.00;0.00;;;;;15.50;100485.00;;;;5087667;28;20400;-77
2021/12/24 08:47:24;;;;;;;0.00;0.00;;;;;15.60;100486.00;;;;5088159;28;20052;-77
2021/12/24 08:49:53;;;;;;;0.00;0.00;;;;;15.60;100489.00;;;;5087733;28;20131;-76
2021/12/24 08:52:22;;;;;;;0.00;0.00;;;;;15.70;100500.00;;;;5086536;28;20103;-76
2021/12/24 08:54:52;;;;;;;0.00;0.00;;;;;15.70;100482.00;;;;5086579;28;20529;-75
2021/12/24 08:57:21;;;;;;;0.00;0.00;;;;;15.80;100501.00;;;;5088150;28;20048;-77
2021/12/24 08:59:51;;;;;;;0.52;0.45;;;;;15.90;100494.00;;;;5087699;28;20101;-76
2021/12/24 09:02:20;;;;;;;0.00;0.00;;;;;16.00;100491.00;;;;5087835;28;20079;-76
2021/12/24 09:04:50;;;;;;;0.00;0.00;;;;;16.10;100522.00;;;;5088003;28;20507;-76
2021/12/24 09:07:19;;;;;;;0.00;0.00;;;;;16.10;100496.00;;;;5087789;28;20036;-76
2021/12/24 09:09:48;;;;;;;0.00;0.00;;;;;16.30;100507.00;;;;5088369;28;20051;-76
2021/12/24 09:12:21;;;;;;;0.00;0.00;;;;;16.40;100495.00;;;;5087580;28;20048;-76
2021/12/24 09:14:53;;;;;;;0.30;0.20;;;;;16.50;100508.00;;;;5087209;28;20098;-76
2021/12/24 09:17:23;;;;;;;0.00;0.00;;;;;16.60;100496.00;;;;5087414;28;20047;-76
2021/12/24 09:19:54;;;;;;;0.00;0.00;;;;;16.70;100509.00;;;;5087379;28;20522;-76
2021/12/24 09:22:31;;;;;;;0.00;0.00;;;;;16.70;100504.00;;;;5087550;28;20047;-76
2021/12/24 09:25:01;;;;;;;3.92;1.10;;;;;16.80;100496.00;;;;5087558;28;20044;-77
2021/12/24 09:27:31;;;;;;;0.00;0.00;;;;;17.00;100502.00;;;;5087819;28;20054;-77
2021/12/24 09:30:01;;;;;;;0.00;0.00;;;;;17.40;100476.00;;;;5087344;28;20055;-76
2021/12/24 09:32:30;;;;;;;0.75;0.40;;;;;18.30;100497.00;;;;5086456;28;20040;-77
2021/12/24 09:35:00;;;;;;;0.00;0.00;;;;;19.90;100369.00;;;;5085996;28;20048;-76
2021/12/24 09:37:29;;;;;;;0.32;0.32;;;;;21.10;100469.00;;;;5087077;28;20130;-77
2021/12/24 09:39:58;;;;;;;0.00;0.00;;;;;19.50;100496.00;;;;5086747;28;20052;-77
2021/12/24 09:42:29;;;;;;;0.00;0.00;;;;;19.00;100460.00;;;;5087089;28;20149;-77
2021/12/24 09:44:59;;;;;;;0.00;0.00;;;;;19.80;100489.00;;;;5086633;28;20044;-77
2021/12/24 09:47:29;;;;;;;0.00;0.00;;;;;19.70;100476.00;;;;5086322;28;20616;-77
2021/12/24 09:49:58;;;;;;;0.00;0.00;;;;;19.30;100520.00;;;;5086748;28;20040;-77
2021/12/24 09:52:30;;;;;;;0.00;0.00;;;;;18.90;100530.00;;;;5085088;28;20499;-77
2021/12/24 09:55:09;;;;;;;0.10;0.10;;;;;18.90;100525.00;;;;5086852;28;20537;-77
2021/12/24 09:57:39;;;;;;;0.00;0.00;;;;;19.00;100524.00;;;;5086660;28;20518;-77
2021/12/24 10:00:11;;;;;;;0.00;0.00;;;;;19.10;100536.00;;;;5087124;28;20423;-76
2021/12/24 10:02:45;;;;;;;0.10;0.10;;;;;19.10;100548.00;;;;5087244;28;20566;-77
2021/12/24 10:05:40;;;;;;;0.00;0.00;;;;;19.30;100561.00;;;;5086565;28;20583;-77
2021/12/24 10:08:21;;;;;;;0.00;0.00;;;;;19.40;100545.00;;;;5086115;28;20503;-76
2021/12/24 10:11:11;;;;;;;0.00;0.00;;;;;19.50;100525.00;;;;5087435;28;20122;-77
2021/12/24 10:13:43;;;;;;;0.00;0.00;;;;;19.60;100554.00;;;;5086952;28;20036;-77
2021/12/24 10:16:22;;;;;;;1.05;0.08;;;;;19.60;100545.00;;;;5086143;28;20062;-77
2021/12/24 10:18:54;;;;;;;1.10;0.65;;;;;19.80;100557.00;;;;5085122;28;20051;-77
2021/12/24 10:21:32;;;;;;;0.00;0.00;;;;;21.20;100475.00;;;;5087247;28;20059;-77
2021/12/24 10:24:18;;;;;;;0.00;0.00;;;;;21.50;100517.00;;;;5086206;28;20082;-77
2021/12/24 10:26:52;;;;;;;0.00;0.00;;;;;21.00;100524.00;;;;5085853;28;20067;-76
2021/12/24 10:29:34;;;;;;;1.13;1.08;;;;;21.10;100514.00;;;;5086375;28;20577;-76
2021/12/24 10:32:15;;;;;;;0.10;0.10;;;;;24.40;100467.00;;;;5086563;28;20044;-77
2021/12/24 10:34:45;;;;;;;;;;;;;23.90;100509.00;;;;5086654;28;20044;-76
2021/12/24 10:37:23;;;;;;;3.70;1.45;;;;;22.60;100544.00;;;;5085664;28;19947;-77
2021/12/24 10:39:55;;;;;;;0.00;0.00;;;;;21.80;100541.00;;;;5086214;28;20419;-77
2021/12/24 10:42:37;;;;;;;0.00;0.00;;;;;21.40;100543.00;;;;5086310;28;20423;-77
2021/12/24 10:45:20;;;;;;;0.05;0.05;;;;;21.50;100542.00;;;;5086484;28;20056;-76
2021/12/24 10:47:50;;;;;;;0.77;0.47;;;;;21.40;100542.00;;;;5085771;28;20044;-76
2021/12/24 10:50:32;;;;;;;0.00;0.00;;;;;21.30;100551.00;;;;5086224;28;20048;-74
2021/12/24 10:53:16;;;;;;;0.00;0.00;;;;;21.30;100548.00;;;;5122394;28;20046;-73
2021/12/24 10:55:53;;;;;;;0.00;0.00;;;;;21.40;100558.00;;;;5124655;27;20050;-74
2021/12/24 10:58:26;;;;;;;0.00;0.00;;;;;21.60;100535.00;;;;5126199;28;20080;-73
2021/12/24 11:01:02;;;;;;;0.00;0.00;;;;;21.80;100540.00;;;;5126649;27;20043;-74
2021/12/24 11:03:34;;;;;;;0.00;0.00;;;;;22.10;100507.00;;;;5126185;28;20077;-73
2021/12/24 11:06:06;;;;;;;0.00;0.00;;;;;27.20;100361.00;;;;5126654;27;20042;-72
2021/12/24 11:08:37;;;;;;;0.98;0.43;;;;;30.90;100334.00;;;;5126442;28;20054;-73
2021/12/24 11:11:11;;;;;;;0.00;0.00;;;;;31.80;100324.00;;;;5126296;27;20038;-73
2021/12/24 11:13:43;;;;;;;0.00;0.00;;;;;32.40;100325.00;;;;5126568;27;20044;-73
2021/12/24 11:16:18;;;;;;;0.00;0.00;;;;;32.60;100322.00;;;;5122592;27;20028;-74
2021/12/24 11:19:02;;;;;;;0.00;0.00;;;;;33.70;100326.00;;;;5125774;28;20047;-76
2021/12/24 11:21:33;;;;;;;0.00;0.00;;;;;34.20;100317.00;;;;5129789;27;20047;-76
2021/12/24 11:24:02;;;;;;;0.00;0.00;;;;;33.30;100305.00;;;;5130509;27;20055;-74
2021/12/24 11:26:49;;;;;;;0.00;0.00;;;;;33.00;100301.00;;;;5130242;27;20299;-76
2021/12/24 11:29:19;;;;;;;0.00;0.00;;;;;33.20;100299.00;;;;5129836;27;20046;-75
2021/12/24 11:31:49;;;;;;;0.88;0.20;;;;;33.40;100290.00;;;;5129605;27;20054;-75
2021/12/24 11:34:19;;;;;;;0.00;0.00;;;;;33.20;100308.00;;;;5129319;27;20039;-76
2021/12/24 11:36:49;;;;;;;0.00;0.00;;;;;33.80;100308.00;;;;5129789;27;20047;-76
2021/12/24 11:39:18;;;;;;;0.00;0.00;;;;;33.10;100316.00;;;;5129483;27;20051;-75
2021/12/24 11:41:48;;;;;;;0.00;0.00;;;;;33.20;100320.00;;;;5129788;27;20540;-76
2021/12/24 11:44:18;;;;;;;0.00;0.00;;;;;33.20;100318.00;;;;5128958;27;20054;-76
2021/12/24 11:46:49;;;;;;;0.00;0.00;;;;;32.50;100334.00;;;;5129284;27;20440;-75
2021/12/24 11:49:31;;;;;;;0.00;0.00;;;;;30.70;100310.00;;;;5129662;27;20047;-75
2021/12/24 11:52:03;;;;;;;0.10;0.10;;;;;30.80;100300.00;;;;5129865;27;20046;-75
2021/12/24 11:54:33;;;;;;;0.00;0.00;;;;;29.10;100466.00;;;;5129506;27;20031;-77
2021/12/24 11:57:16;;;;;;;0.73;0.20;;;;;30.10;100358.00;;;;5129347;27;20043;-77
2021/12/24 11:59:46;;;;;;;0.00;0.00;;;;;27.10;100536.00;;;;5129173;27;20403;-75
2021/12/24 12:02:45;;;;;;;0.00;0.00;;;;;27.50;100525.00;;;;5129478;27;20078;-73
2021/12/24 12:05:18;;;;;;;0.00;0.00;;;;;27.60;100458.00;;;;5129834;27;20035;-74
2021/12/24 12:07:48;;;;;;;1.35;0.32;;;;;28.50;100449.00;;;;5130334;27;20042;-73
2021/12/24 12:10:53;;;;;;;0.28;0.28;;;;;29.30;100449.00;;;;5129920;27;20149;-73
2021/12/24 12:13:35;;;;;;;0.00;0.00;;;;;28.60;100514.00;;;;5128669;27;20181;-73
2021/12/24 12:16:08;;;;;;;0.95;0.30;;;;;28.80;100418.00;;;;5130232;27;20066;-74
2021/12/24 12:19:03;;;;;;;3.38;1.77;;;;;29.10;100433.00;;;;5129756;27;20053;-74
2021/12/24 12:21:44;;;;;;;0.10;0.03;;;;;28.60;100436.00;;;;5130432;27;20042;-74
2021/12/24 12:26:52;;;;;;;2.15;0.45;;;;;29.20;100415.00;;;;5128700;27;20070;-74
2021/12/24 12:29:43;;;;;;;0.00;0.00;;;;;30.20;100432.00;;;;5129914;27;20043;-73
2021/12/24 12:32:16;;;;;;;0.20;0.10;;;;;30.10;100470.00;;;;5128572;27;20118;-74
2021/12/24 12:34:46;;;;;;;0.00;0.00;;;;;29.60;100420.00;;;;5128402;27;20043;-74
2021/12/24 12:37:27;;;;;;;1.95;1.08;;;;;30.00;100425.00;;;;5128542;27;20517;-73
2021/12/24 12:40:05;;;;;;;0.77;0.22;;;;;29.70;100476.00;;;;5128603;27;20604;-75
2021/12/24 12:42:51;;;;;;;0.55;0.30;;;;;28.60;100504.00;;;;5128502;27;20452;-73
2021/12/24 12:45:42;;;;;;;0.65;0.13;;;;;27.30;100496.00;;;;5130170;27;20067;-74
2021/12/24 12:48:16;;;;;;;0.60;0.40;;;;;26.30;100500.00;;;;5128439;27;20115;-74
2021/12/24 12:50:57;;;;;;;0.20;0.10;;;;;26.20;100413.00;;;;5128463;27;20436;-72
2021/12/24 12:53:36;;;;;;;0.00;0.00;;;;;28.20;100413.00;;;;5127420;27;20076;-75
2021/12/24 12:56:09;;;;;;;0.00;0.00;;;;;29.50;100419.00;;;;5128501;27;20054;-74
2021/12/24 12:58:40;;;;;;;3.55;0.47;;;;;29.60;100495.00;;;;5128441;27;20035;-74
2021/12/24 13:01:17;;;;;;;0.30;0.30;;;;;28.00;100478.00;;;;5127959;27;20490;-74
2021/12/24 13:03:56;;;;;;;0.52;0.13;;;;;28.90;100409.00;;;;5128170;27;20062;-74
2021/12/24 13:06:52;;;;;;;0.00;0.00;;;;;29.60;100406.00;;;;5128752;27;20502;-74
2021/12/24 13:09:32;;;;;;;0.10;0.10;;;;;30.20;100414.00;;;;5128603;27;20069;-74
2021/12/24 13:12:03;;;;;;;0.90;0.40;;;;;30.90;100478.00;;;;5129208;27;20062;-73
2021/12/24 13:14:36;;;;;;;0.00;0.00;;;;;28.40;100467.00;;;;5128361;27;20150;-73
2021/12/24 13:22:29;;;;;;;1.35;0.10;;;;;28.90;100420.00;;;;5127523;27;20490;-75
2021/12/24 13:25:09;;;;;;;0.00;0.00;;;;;29.80;100422.00;;;;5128541;27;20076;-74
2021/12/24 13:27:40;;;;;;;;;;;;;30.10;100453.00;;;;5128825;27;20039;-74
2021/12/24 13:30:24;;;;;;;0.00;0.00;;;;;28.20;100479.00;;;;5128051;27;20018;-74
2021/12/24 13:33:02;;;;;;;0.00;0.00;;;;;27.50;100431.00;;;;5128488;27;20284;-75
2021/12/24 13:35:42;;;;;;;0.00;0.00;;;;;27.80;100462.00;;;;5127736;27;20054;-74
2021/12/24 13:38:16;;;;;;;0.10;0.10;;;;;28.20;100426.00;;;;5128471;27;20122;-73
2021/12/24 13:40:47;;;;;;;0.00;0.00;;;;;27.40;100465.00;;;;5128025;27;20368;-74
2021/12/24 13:43:18;;;;;;;0.00;0.00;;;;;27.90;100395.00;;;;5126867;27;20051;-73
2021/12/24 13:45:51;;;;;;;0.00;0.00;;;;;29.30;100424.00;;;;5126488;27;20534;-74
2021/12/24 13:48:39;;;;;;;0.00;0.00;;;;;28.20;100392.00;;;;5128064;27;20036;-74
2021/12/24 13:56:49;;;;;;;0.73;0.00;;;;;30.70;100377.00;;;;5128179;27;20039;-76
2021/12/24 13:59:28;;;;;;;0.00;0.00;;;;;30.90;100374.00;;;;5127431;27;20055;-74
2021/12/24 14:02:00;;;;;;;0.00;0.00;;;;;31.00;100360.00;;;;5127224;27;20039;-75
2021/12/24 14:04:32;;;;;;;0.00;0.00;;;;;31.20;100369.00;;;;5128000;27;20063;-77
2021/12/24 14:07:02;;;;;;;0.00;0.00;;;;;31.30;100371.00;;;;5128253;27;20475;-76
2021/12/24 14:09:34;;;;;;;0.00;0.00;;;;;30.80;100374.00;;;;5126094;27;20039;-76
2021/12/24 14:12:07;;;;;;;0.00;0.00;;;;;29.70;100440.00;;;;5127640;27;20528;-76
2021/12/24 14:22:32;;;;;;;0.00;0.00;;;;;27.60;100420.00;;;;5126913;27;20040;-75
2021/12/24 14:25:13;;;;;;;1.30;0.45;;;;;27.70;100397.00;;;;5125446;28;20575;-75
2021/12/24 14:27:48;;;;;;;0.00;0.00;;;;;29.80;100343.00;;;;5127466;27;20040;-75
2021/12/24 14:30:20;;;;;;;0.00;0.00;;;;;30.90;100380.00;;;;5127337;27;20043;-75
2021/12/24 14:32:51;;;;;;;0.47;0.28;;;;;30.20;100412.00;;;;5127716;27;20079;-75
2021/12/24 14:35:27;;;;;;;0.00;0.00;;;;;29.30;100397.00;;;;5127652;27;20039;-74
2021/12/24 14:38:05;;;;;;;0.65;0.20;;;;;28.70;100415.00;;;;5125738;28;20919;-75
2021/12/24 14:40:37;;;;;;;0.00;0.00;;;;;28.50;100402.00;;;;5126295;27;20087;-75
2021/12/24 14:43:17;;;;;;;0.90;0.80;;;;;28.30;100392.00;;;;5126581;27;20043;-75
2021/12/24 14:45:49;;;;;;;0.00;0.00;;;;;28.70;100307.00;;;;5125562;28;20046;-75
2021/12/24 14:48:25;;;;;;;0.00;0.00;;;;;30.80;100325.00;;;;5126298;27;20046;-75
2021/12/24 14:50:58;;;;;;;0.00;0.00;;;;;31.70;100336.00;;;;5127343;28;20071;-75